Time;durP1;ratioP1;P1;durP2;ratioP2;P2;SDS_P1;SDS_P2;PMS_P1;PMS_P2;Temp;Humidity;BMP_temperature;BMP_pressure;BME280_temperature;BME280_humidity;BME280_pressure;Samples;Min_cycle;Max_cycle;Signal;HPM_P1;HPM_P2
2021/01/25 00:02:05;;;;;;;19.47;12.50;;;1.10;96.10;;;;;;5087033;28;20394;-83
2021/01/25 00:04:32;;;;;;;20.60;12.20;;;1.10;96.30;;;;;;5037387;28;20040;-83
2021/01/25 00:06:58;;;;;;;18.73;12.20;;;1.00;96.00;;;;;;5051026;28;20036;-83
2021/01/25 00:09:25;;;;;;;21.53;12.90;;;1.00;96.00;;;;;;5053373;28;20581;-83
2021/01/25 00:11:51;;;;;;;19.43;11.00;;;1.00;96.10;;;;;;5036682;28;20040;-84
2021/01/25 00:14:18;;;;;;;25.57;14.23;;;1.00;96.10;;;;;;5087021;28;20530;-83
2021/01/25 00:16:44;;;;;;;22.27;13.43;;;1.00;96.10;;;;;;5035330;28;20047;-83
2021/01/25 00:19:11;;;;;;;19.73;12.43;;;1.00;96.10;;;;;;5053343;28;20044;-84
2021/01/25 00:21:37;;;;;;;24.43;12.13;;;1.00;96.10;;;;;;5053878;28;20039;-83
2021/01/25 00:24:04;;;;;;;17.73;12.10;;;1.00;96.10;;;;;;5070210;28;20145;-84
2021/01/25 00:26:31;;;;;;;23.87;14.00;;;1.00;96.10;;;;;;5052265;28;20893;-83
2021/01/25 00:28:58;;;;;;;17.67;11.80;;;1.00;96.10;;;;;;5036881;28;20036;-84
2021/01/25 00:31:24;;;;;;;19.40;13.47;;;1.00;96.10;;;;;;5053527;28;20036;-83
2021/01/25 00:33:51;;;;;;;23.73;15.63;;;1.10;96.10;;;;;;5067733;28;20056;-84
2021/01/25 00:36:18;;;;;;;23.03;14.73;;;1.10;96.10;;;;;;5069705;28;20040;-85
2021/01/25 00:38:44;;;;;;;22.47;13.73;;;1.10;96.00;;;;;;5043780;28;20059;-83
2021/01/25 00:41:11;;;;;;;25.47;14.37;;;1.10;96.00;;;;;;5052855;28;20051;-83
2021/01/25 00:43:37;;;;;;;22.07;15.43;;;1.10;96.00;;;;;;5036574;28;20032;-83
2021/01/25 00:46:04;;;;;;;24.17;15.50;;;1.10;96.00;;;;;;5064063;28;20424;-83
2021/01/25 00:48:30;;;;;;;21.63;14.17;;;1.10;96.00;;;;;;5035313;28;20098;-83
2021/01/25 00:50:57;;;;;;;27.40;17.17;;;1.10;95.90;;;;;;5052141;28;20052;-83
2021/01/25 00:53:24;;;;;;;26.53;15.77;;;1.10;95.90;;;;;;5037061;28;20509;-82
2021/01/25 00:55:51;;;;;;;24.47;16.57;;;1.10;95.90;;;;;;5035990;28;20040;-83
2021/01/25 00:58:18;;;;;;;19.90;13.60;;;1.10;95.90;;;;;;5040486;28;20032;-83
2021/01/25 01:00:45;;;;;;;24.43;14.83;;;1.10;95.90;;;;;;5035908;28;20036;-83
2021/01/25 01:03:11;;;;;;;26.37;16.03;;;1.10;95.90;;;;;;5052250;28;20043;-82
2021/01/25 01:05:38;;;;;;;24.93;16.57;;;1.10;95.90;;;;;;5051441;28;20039;-83
2021/01/25 01:08:05;;;;;;;24.10;17.03;;;1.10;95.90;;;;;;5050149;28;20044;-83
2021/01/25 01:10:31;;;;;;;30.33;18.50;;;1.10;95.90;;;;;;5081801;28;20521;-84
2021/01/25 01:12:58;;;;;;;30.97;19.43;;;1.10;95.80;;;;;;5052516;28;20593;-84
2021/01/25 01:15:25;;;;;;;30.70;19.13;;;1.10;95.80;;;;;;5052158;28;20043;-84
2021/01/25 01:17:52;;;;;;;31.07;19.07;;;1.10;95.80;;;;;;5050550;28;20035;-83
2021/01/25 01:20:18;;;;;;;29.17;18.50;;;1.10;95.80;;;;;;5068875;28;20047;-83
2021/01/25 01:22:45;;;;;;;24.13;15.00;;;1.10;95.80;;;;;;5037315;28;20430;-84
2021/01/25 01:25:13;;;;;;;24.57;17.43;;;1.10;95.80;;;;;;5035969;28;20048;-84
2021/01/25 01:27:39;;;;;;;24.23;16.87;;;1.10;95.80;;;;;;5050508;28;20071;-84
2021/01/25 01:30:07;;;;;;;21.70;14.37;;;1.10;95.80;;;;;;5069200;28;20394;-83
2021/01/25 01:32:34;;;;;;;26.10;16.83;;;1.10;95.90;;;;;;5068698;28;20048;-83
2021/01/25 01:35:02;;;;;;;29.90;19.13;;;1.10;95.90;;;;;;5068401;28;20047;-84
2021/01/25 01:37:28;;;;;;;28.80;18.67;;;1.10;95.80;;;;;;5083366;28;20055;-83
2021/01/25 01:39:55;;;;;;;28.50;17.63;;;1.20;95.90;;;;;;5034670;28;20035;-83
2021/01/25 01:42:21;;;;;;;28.23;18.40;;;1.10;95.80;;;;;;5050989;28;20028;-84
2021/01/25 01:44:48;;;;;;;30.23;18.83;;;1.10;95.80;;;;;;5055203;28;20406;-84
2021/01/25 01:47:19;;;;;;;25.87;17.10;;;1.10;95.90;;;;;;5033774;28;20047;-84
2021/01/25 01:49:46;;;;;;;28.27;17.33;;;1.10;95.90;;;;;;5065977;28;20032;-84
2021/01/25 01:52:13;;;;;;;26.53;17.33;;;1.10;95.90;;;;;;5068882;28;20047;-84
2021/01/25 01:54:40;;;;;;;21.53;13.90;;;1.20;96.00;;;;;;5035504;28;20043;-84
2021/01/25 01:57:07;;;;;;;20.53;14.57;;;1.20;96.00;;;;;;5070728;28;20063;-84
2021/01/25 01:59:35;;;;;;;25.53;16.97;;;1.20;96.00;;;;;;5084063;28;20908;-84
2021/01/25 02:02:01;;;;;;;30.03;17.43;;;1.20;96.00;;;;;;5034382;28;20035;-83
2021/01/25 02:04:30;;;;;;;25.60;18.03;;;1.30;96.00;;;;;;5076239;28;20048;-83
2021/01/25 02:06:58;;;;;;;30.23;19.17;;;1.30;96.00;;;;;;5067472;28;20490;-83
2021/01/25 02:09:30;;;;;;;27.87;18.57;;;1.30;95.90;;;;;;5084699;28;20048;-83
2021/01/25 02:11:57;;;;;;;29.97;18.90;;;1.20;96.20;;;;;;5068243;28;20047;-83
2021/01/25 02:14:25;;;;;;;30.67;19.13;;;1.30;95.90;;;;;;5065088;28;20036;-83
2021/01/25 02:16:51;;;;;;;26.60;18.13;;;1.30;95.90;;;;;;5049314;28;20415;-83
2021/01/25 02:19:31;;;;;;;31.60;19.10;;;1.30;95.90;;;;;;5050281;28;20041;-83
2021/01/25 02:22:24;;;;;;;22.90;13.97;;;1.30;96.20;;;;;;5064546;28;20488;-83
2021/01/25 02:25:37;;;;;;;25.13;16.17;;;1.30;95.90;;;;;;5061076;28;20045;-83
2021/01/25 02:28:04;;;;;;;25.80;16.43;;;1.30;95.90;;;;;;5057876;28;20043;-84
2021/01/25 02:30:31;;;;;;;27.87;17.80;;;1.30;95.90;;;;;;5033791;28;20036;-84
2021/01/25 02:32:59;;;;;;;29.50;18.77;;;1.30;95.90;;;;;;5051011;28;20478;-84
2021/01/25 02:35:28;;;;;;;27.13;17.57;;;1.30;95.90;;;;;;5049691;28;20036;-83
2021/01/25 02:37:56;;;;;;;30.67;18.40;;;1.20;95.90;;;;;;5065166;28;20040;-84
2021/01/25 02:40:24;;;;;;;31.80;19.30;;;1.30;96.00;;;;;;5074102;28;20039;-84
2021/01/25 02:42:54;;;;;;;30.77;19.73;;;1.30;95.90;;;;;;5051855;28;20043;-82
2021/01/25 02:45:23;;;;;;;25.23;16.30;;;1.30;95.90;;;;;;5084057;28;20517;-83
2021/01/25 02:47:51;;;;;;;34.43;21.03;;;1.30;95.90;;;;;;5067361;28;20074;-83
2021/01/25 02:50:17;;;;;;;29.97;18.17;;;1.30;95.90;;;;;;5050645;28;20129;-82
2021/01/25 02:52:44;;;;;;;30.40;19.00;;;1.30;95.90;;;;;;5051553;28;20510;-83
2021/01/25 02:55:11;;;;;;;32.53;20.33;;;1.30;95.90;;;;;;5045235;28;20052;-83
2021/01/25 02:57:38;;;;;;;33.83;20.90;;;1.20;95.90;;;;;;5050693;28;20380;-83
2021/01/25 03:00:07;;;;;;;28.30;18.67;;;1.20;95.80;;;;;;5068983;28;20043;-84
2021/01/25 03:02:35;;;;;;;31.60;18.63;;;1.20;95.80;;;;;;5051317;28;20032;-83
2021/01/25 03:05:03;;;;;;;30.43;20.40;;;1.20;95.80;;;;;;5069048;28;20025;-83
2021/01/25 03:07:30;;;;;;;35.57;20.43;;;1.20;95.80;;;;;;5086495;28;20055;-83
2021/01/25 03:10:02;;;;;;;32.87;21.03;;;1.20;95.80;;;;;;5069330;28;20051;-83
2021/01/25 03:12:29;;;;;;;34.05;22.73;;;1.10;95.80;;;;;;5069342;28;20051;-82
2021/01/25 03:14:55;;;;;;;35.70;22.57;;;1.10;95.80;;;;;;5068707;28;20032;-82
2021/01/25 03:17:22;;;;;;;32.27;20.00;;;1.10;95.70;;;;;;5050914;28;20060;-82
2021/01/25 03:19:49;;;;;;;29.17;19.60;;;1.00;95.70;;;;;;5087252;28;20044;-83
2021/01/25 03:22:15;;;;;;;28.43;19.77;;;1.00;95.80;;;;;;5069699;28;20347;-83
2021/01/25 03:24:42;;;;;;;30.70;20.23;;;1.00;95.80;;;;;;5039376;28;20037;-83
2021/01/25 03:27:08;;;;;;;28.97;19.20;;;1.00;95.90;;;;;;5050357;28;20048;-83
2021/01/25 03:29:35;;;;;;;28.40;19.07;;;1.00;95.90;;;;;;5050574;28;20110;-82
2021/01/25 03:32:02;;;;;;;30.60;20.87;;;1.00;95.90;;;;;;5067648;28;20032;-83
2021/01/25 03:34:28;;;;;;;32.77;21.57;;;0.90;95.80;;;;;;5050061;28;20093;-83
2021/01/25 03:36:55;;;;;;;32.00;21.70;;;0.90;95.90;;;;;;5063660;28;20048;-83
2021/01/25 03:39:22;;;;;;;35.90;21.97;;;0.90;95.90;;;;;;5032045;28;20051;-83
2021/01/25 03:41:48;;;;;;;36.90;24.27;;;0.90;95.90;;;;;;5068157;28;20058;-82
2021/01/25 03:44:15;;;;;;;31.70;20.23;;;0.90;95.90;;;;;;5053732;28;20048;-83
2021/01/25 03:46:48;;;;;;;32.83;20.23;;;0.90;96.20;;;;;;5078466;28;20139;-83
2021/01/25 03:49:15;;;;;;;31.97;19.97;;;0.80;95.90;;;;;;5068862;28;20041;-83
2021/01/25 03:51:42;;;;;;;30.90;20.33;;;0.80;95.90;;;;;;5053893;28;20051;-83
2021/01/25 03:54:12;;;;;;;29.40;18.60;;;0.80;96.00;;;;;;5053763;28;20055;-83
2021/01/25 03:56:40;;;;;;;29.37;20.23;;;0.80;96.00;;;;;;5069661;28;20056;-83
2021/01/25 03:59:07;;;;;;;29.33;17.73;;;0.80;96.00;;;;;;5085656;28;20046;-83
2021/01/25 04:01:33;;;;;;;29.93;20.03;;;0.80;96.30;;;;;;5085417;28;20493;-83
2021/01/25 04:04:00;;;;;;;28.57;18.33;;;0.70;96.00;;;;;;5070111;28;20059;-82
2021/01/25 04:06:27;;;;;;;35.57;21.70;;;0.70;96.10;;;;;;5069555;28;20047;-83
2021/01/25 04:08:53;;;;;;;31.20;19.63;;;0.70;96.10;;;;;;5053997;28;20039;-83
2021/01/25 04:11:20;;;;;;;32.87;21.17;;;0.70;96.10;;;;;;5070089;28;20047;-83
2021/01/25 04:13:46;;;;;;;27.43;19.47;;;0.60;96.10;;;;;;5087054;28;20044;-83
2021/01/25 04:16:13;;;;;;;26.30;17.53;;;0.60;96.40;;;;;;5053449;28;20047;-82
2021/01/25 04:18:39;;;;;;;25.17;15.73;;;0.60;96.20;;;;;;5052830;28;20391;-83
2021/01/25 04:21:06;;;;;;;29.10;20.10;;;0.60;96.20;;;;;;5036673;28;20043;-83
2021/01/25 04:23:32;;;;;;;30.87;19.07;;;0.60;96.20;;;;;;5036925;28;20043;-82
2021/01/25 04:25:59;;;;;;;29.47;19.13;;;0.50;96.20;;;;;;5069964;28;20044;-82
2021/01/25 04:28:25;;;;;;;34.00;21.23;;;0.50;96.30;;;;;;5052438;28;20044;-82
2021/01/25 04:30:52;;;;;;;24.60;16.13;;;0.50;96.30;;;;;;5036512;28;20044;-82
2021/01/25 04:33:18;;;;;;;24.00;16.23;;;0.50;96.30;;;;;;5053056;28;20056;-83
2021/01/25 04:35:45;;;;;;;29.77;19.33;;;0.40;96.30;;;;;;5051741;28;20044;-83
2021/01/25 04:38:11;;;;;;;26.93;18.83;;;0.40;96.30;;;;;;5067572;28;20036;-83
2021/01/25 04:40:39;;;;;;;26.53;17.47;;;0.40;96.40;;;;;;5069313;28;20075;-83
2021/01/25 04:43:07;;;;;;;27.03;17.67;;;0.40;96.40;;;;;;5070426;28;20497;-83
2021/01/25 04:45:34;;;;;;;23.13;15.00;;;0.30;96.40;;;;;;5036793;28;20042;-82
2021/01/25 04:48:01;;;;;;;25.93;17.50;;;0.30;96.40;;;;;;5052955;28;20038;-83
2021/01/25 04:50:28;;;;;;;24.00;16.20;;;0.30;96.50;;;;;;5069628;28;20493;-83
2021/01/25 04:52:55;;;;;;;28.33;19.63;;;0.30;96.50;;;;;;5035992;28;20048;-83
2021/01/25 04:55:22;;;;;;;32.90;22.03;;;0.20;96.50;;;;;;5068679;28;20577;-83
2021/01/25 04:57:51;;;;;;;37.97;23.40;;;0.20;96.50;;;;;;5066873;28;20049;-83
2021/01/25 05:00:19;;;;;;;36.97;24.07;;;0.20;96.50;;;;;;5066814;28;20059;-83
2021/01/25 05:02:46;;;;;;;32.33;21.20;;;0.20;96.50;;;;;;5052845;28;20066;-84
2021/01/25 05:05:14;;;;;;;30.73;21.07;;;0.10;96.60;;;;;;5063727;28;20391;-82
2021/01/25 05:07:40;;;;;;;35.37;24.17;;;0.10;96.60;;;;;;5068907;28;20036;-83
2021/01/25 05:10:10;;;;;;;32.93;22.50;;;0.10;96.60;;;;;;5084863;28;20052;-83
2021/01/25 05:12:48;;;;;;;32.00;21.80;;;0.10;96.60;;;;;;5069058;28;20032;-83
2021/01/25 05:15:29;;;;;;;28.57;20.40;;;0.00;96.60;;;;;;5036160;28;20402;-83
2021/01/25 05:17:57;;;;;;;29.10;18.43;;;0.00;96.60;;;;;;5068900;28;20036;-83
2021/01/25 05:20:28;;;;;;;28.03;19.40;;;0.00;96.60;;;;;;5052003;28;20043;-83
2021/01/25 05:22:56;;;;;;;30.33;19.80;;;0.00;96.70;;;;;;5067026;28;20036;-83
2021/01/25 05:25:23;;;;;;;22.00;14.13;;;-0.10;96.70;;;;;;5052372;28;20043;-83
2021/01/25 05:27:50;;;;;;;27.77;18.60;;;-0.10;96.70;;;;;;5084766;28;20028;-83
2021/01/25 05:30:17;;;;;;;35.60;20.73;;;-0.10;96.70;;;;;;5034975;28;20051;-84
2021/01/25 05:32:49;;;;;;;31.57;20.63;;;-0.10;96.80;;;;;;5085067;28;20495;-82
2021/01/25 05:35:30;;;;;;;32.80;21.50;;;-0.10;96.80;;;;;;5069268;28;20039;-83
2021/01/25 05:38:05;;;;;;;36.83;22.63;;;-0.10;96.70;;;;;;5063190;28;20402;-87
2021/01/25 05:40:35;;;;;;;37.83;24.50;;;-0.10;96.70;;;;;;5064494;28;20900;-83
2021/01/25 05:43:14;;;;;;;43.93;27.43;;;-0.10;96.70;;;;;;5081014;28;20055;-85
2021/01/25 05:45:41;;;;;;;79.10;50.83;;;-0.10;96.70;;;;;;5068761;28;20032;-85
2021/01/25 05:48:12;;;;;;;60.37;35.93;;;-0.20;96.70;;;;;;5077735;28;21016;-85
2021/01/25 05:50:41;;;;;;;52.93;33.40;;;-0.20;96.70;;;;;;5051666;28;20047;-84
2021/01/25 05:53:10;;;;;;;55.83;33.33;;;-0.20;96.70;;;;;;5085728;28;20052;-89
2021/01/25 05:55:50;;;;;;;47.27;28.70;;;-0.20;96.70;;;;;;5069766;28;20059;-85
2021/01/25 05:58:39;;;;;;;60.20;34.07;;;-0.20;96.80;;;;;;5080590;28;20056;-85
2021/01/25 06:01:06;;;;;;;60.60;31.90;;;-0.20;96.80;;;;;;5083910;28;20049;-83
2021/01/25 06:03:38;;;;;;;51.60;28.23;;;-0.30;96.80;;;;;;5084794;28;20044;-84
2021/01/25 06:06:11;;;;;;;57.27;34.80;;;-0.30;96.80;;;;;;5067355;28;20037;-84
2021/01/25 06:08:52;;;;;;;54.50;33.27;;;-0.30;96.80;;;;;;5067227;28;20049;-88
2021/01/25 06:11:27;;;;;;;53.10;31.90;;;-0.30;96.80;;;;;;5069303;28;20044;-84
2021/01/25 06:14:12;;;;;;;46.60;29.90;;;-0.30;96.80;;;;;;5069432;28;20044;-84
2021/01/25 06:16:43;;;;;;;54.93;31.70;;;-0.30;96.90;;;;;;5100946;28;20044;-83
2021/01/25 06:19:09;;;;;;;53.67;34.20;;;-0.30;97.10;;;;;;5083268;28;20044;-85
2021/01/25 06:21:40;;;;;;;55.10;36.50;;;-0.30;96.90;;;;;;5035497;28;20036;-85
2021/01/25 06:24:08;;;;;;;88.57;48.53;;;-0.30;96.90;;;;;;5067704;28;20039;-87
2021/01/25 06:26:36;;;;;;;56.77;36.20;;;-0.30;96.90;;;;;;5065865;28;20051;-87
2021/01/25 06:29:04;;;;;;;51.77;33.07;;;-0.30;96.90;;;;;;5082866;28;20055;-84
2021/01/25 06:31:35;;;;;;;49.30;32.90;;;-0.40;97.20;;;;;;5051088;28;20039;-84
2021/01/25 06:34:08;;;;;;;51.07;32.07;;;-0.40;96.90;;;;;;5067744;28;20036;-83
2021/01/25 06:36:35;;;;;;;42.70;26.25;;;-0.40;96.90;;;;;;5067709;28;20036;-83
2021/01/25 06:39:06;;;;;;;57.13;36.07;;;-0.40;96.90;;;;;;5067329;28;20039;-84
2021/01/25 06:41:40;;;;;;;54.17;34.40;;;-0.40;97.00;;;;;;5059706;28;20088;-84
2021/01/25 06:44:09;;;;;;;46.30;29.83;;;-0.40;97.00;;;;;;5080659;28;20051;-85
2021/01/25 06:46:37;;;;;;;45.33;28.83;;;-0.40;97.00;;;;;;5058840;28;20036;-84
2021/01/25 06:49:06;;;;;;;43.87;27.17;;;-0.40;97.00;;;;;;5034878;28;21116;-83
2021/01/25 06:51:39;;;;;;;41.70;24.30;;;-0.50;97.00;;;;;;5085671;28;20384;-84
2021/01/25 06:54:09;;;;;;;39.27;25.53;;;-0.50;97.00;;;;;;5034926;28;20067;-83
2021/01/25 06:56:53;;;;;;;37.93;25.70;;;-0.50;97.10;;;;;;5050224;28;20062;-84
2021/01/25 06:59:24;;;;;;;45.60;29.07;;;-0.50;97.10;;;;;;5024114;28;20065;-84
2021/01/25 07:01:53;;;;;;;46.33;27.87;;;-0.40;97.20;;;;;;5013106;28;20129;-83
2021/01/25 07:04:22;;;;;;;51.47;31.10;;;-0.50;97.20;;;;;;5011925;28;20052;-87
2021/01/25 07:06:50;;;;;;;50.30;31.83;;;-0.40;97.20;;;;;;5043078;28;20045;-88
2021/01/25 07:09:31;;;;;;;47.10;29.50;;;-0.40;97.20;;;;;;5028973;28;20053;-88
2021/01/25 07:12:02;;;;;;;52.10;32.67;;;-0.40;97.20;;;;;;5028459;28;20033;-88
2021/01/25 07:14:32;;;;;;;51.57;31.50;;;-0.40;97.10;;;;;;5012773;28;20048;-88
2021/01/25 07:17:00;;;;;;;47.40;29.93;;;-0.40;97.10;;;;;;5029040;28;20055;-84
2021/01/25 07:19:27;;;;;;;48.23;29.63;;;-0.40;97.10;;;;;;5040777;28;20037;-83
2021/01/25 07:21:54;;;;;;;48.23;31.13;;;-0.40;97.10;;;;;;5048219;28;20029;-84
2021/01/25 07:24:21;;;;;;;42.23;27.37;;;-0.50;97.10;;;;;;5015409;28;20432;-84
2021/01/25 07:26:53;;;;;;;48.80;28.37;;;-0.50;97.10;;;;;;5048908;28;20612;-84
2021/01/25 07:29:20;;;;;;;46.27;29.47;;;-0.50;97.10;;;;;;5014569;28;20036;-84
2021/01/25 07:31:48;;;;;;;46.40;29.40;;;-0.50;97.10;;;;;;5048338;28;20045;-84
2021/01/25 07:34:15;;;;;;;47.80;30.13;;;-0.60;97.10;;;;;;4995819;28;20049;-84
2021/01/25 07:36:43;;;;;;;43.30;26.63;;;-0.60;97.20;;;;;;5029194;28;20049;-89
2021/01/25 07:39:12;;;;;;;42.03;28.13;;;-0.60;97.20;;;;;;5030486;28;20045;-84
2021/01/25 07:41:40;;;;;;;47.20;29.57;;;-0.60;97.20;;;;;;5018999;28;20475;-84
2021/01/25 07:44:08;;;;;;;46.70;28.87;;;-0.60;97.20;;;;;;5015636;28;20056;-83
2021/01/25 07:46:35;;;;;;;46.83;29.40;;;-0.70;97.20;;;;;;5029772;28;20040;-83
2021/01/25 07:49:02;;;;;;;44.77;27.23;;;-0.70;97.20;;;;;;5045596;28;20056;-83
2021/01/25 07:51:36;;;;;;;40.30;25.90;;;-0.60;97.20;;;;;;5014928;28;20048;-84
2021/01/25 07:54:04;;;;;;;36.83;23.93;;;-0.70;97.20;;;;;;5036486;28;20052;-85
2021/01/25 07:56:31;;;;;;;46.20;28.53;;;-0.60;97.30;;;;;;5002755;28;20045;-83
2021/01/25 07:59:17;;;;;;;43.30;26.40;;;-0.70;97.20;;;;;;5079711;28;20059;-83
2021/01/25 08:01:52;;;;;;;35.43;24.23;;;-0.60;97.30;;;;;;5070738;28;20494;-84
2021/01/25 08:04:23;;;;;;;35.17;22.47;;;-0.60;97.30;;;;;;5061477;28;20486;-83
2021/01/25 08:06:53;;;;;;;42.87;26.30;;;-0.60;97.30;;;;;;5067594;28;20047;-83
2021/01/25 08:09:21;;;;;;;41.73;24.10;;;-0.60;97.30;;;;;;5085690;28;20478;-83
2021/01/25 08:11:49;;;;;;;34.50;21.87;;;-0.60;97.30;;;;;;5052753;28;20032;-84
2021/01/25 08:14:27;;;;;;;37.73;23.27;;;-0.50;97.30;;;;;;5087424;28;20044;-84
2021/01/25 08:17:22;;;;;;;37.83;22.77;;;-0.50;97.30;;;;;;5069158;28;20401;-83
2021/01/25 08:20:03;;;;;;;32.87;21.47;;;-0.50;97.30;;;;;;5050692;28;20044;-85
2021/01/25 08:22:42;;;;;;;30.53;19.80;;;-0.40;97.30;;;;;;5071685;28;20828;-86
2021/01/25 08:25:16;;;;;;;32.47;22.73;;;-0.40;97.30;;;;;;5085644;28;20048;-84
2021/01/25 08:27:52;;;;;;;30.53;19.87;;;-0.30;97.30;;;;;;5068376;28;20036;-84
2021/01/25 08:30:22;;;;;;;29.43;20.07;;;-0.30;97.20;;;;;;5059711;28;20055;-81
2021/01/25 08:32:55;;;;;;;29.47;19.27;;;-0.20;97.20;;;;;;5086657;28;20052;-82
2021/01/25 08:35:40;;;;;;;29.17;19.50;;;-0.10;97.40;;;;;;5069523;28;20027;-83
2021/01/25 08:38:23;;;;;;;39.40;22.87;;;0.00;97.20;;;;;;5069403;28;20051;-82
2021/01/25 08:40:54;;;;;;;32.50;20.67;;;0.00;97.10;;;;;;5068658;28;20047;-82
2021/01/25 08:43:32;;;;;;;31.43;20.43;;;0.10;97.10;;;;;;5069050;28;20036;-82
2021/01/25 08:46:10;;;;;;;32.40;21.63;;;0.20;97.10;;;;;;5084420;28;20106;-82
2021/01/25 08:48:37;;;;;;;31.00;20.40;;;0.20;97.00;;;;;;5069314;28;20031;-82
2021/01/25 08:51:16;;;;;;;32.17;19.77;;;0.30;97.00;;;;;;5084068;28;20048;-82
2021/01/25 08:53:46;;;;;;;28.77;18.10;;;0.40;97.00;;;;;;5083748;28;20048;-81
2021/01/25 08:56:18;;;;;;;31.50;19.27;;;0.40;96.90;;;;;;5052846;28;20035;-81
2021/01/25 08:58:45;;;;;;;34.05;19.90;;;0.50;96.90;;;;;;5084839;28;20070;-81
2021/01/25 09:01:27;;;;;;;22.17;15.60;;;0.50;96.90;;;;;;5085635;28;20036;-81
2021/01/25 09:03:57;;;;;;;30.63;18.52;;;0.60;96.90;;;;;;5083639;28;20036;-81
2021/01/25 09:06:26;;;;;;;31.43;19.47;;;0.70;96.90;;;;;;5068741;28;20368;-81
2021/01/25 09:08:52;;;;;;;26.80;17.10;;;0.70;96.80;;;;;;5087701;28;20040;-81
2021/01/25 09:11:19;;;;;;;26.57;17.13;;;0.80;96.70;;;;;;5074844;28;20043;-80
2021/01/25 09:13:45;;;;;;;33.63;19.37;;;0.90;96.70;;;;;;5044726;28;20040;-81
2021/01/25 09:16:12;;;;;;;30.53;19.50;;;0.90;96.70;;;;;;5086060;28;20028;-81
2021/01/25 09:18:38;;;;;;;31.67;20.13;;;1.00;96.60;;;;;;5084541;28;20051;-81
2021/01/25 09:21:05;;;;;;;28.57;20.10;;;1.10;96.50;;;;;;5051557;28;20032;-80
2021/01/25 09:23:32;;;;;;;29.97;20.00;;;1.10;96.40;;;;;;5085605;28;20039;-80
2021/01/25 09:25:58;;;;;;;27.40;18.77;;;1.10;96.40;;;;;;5054832;28;20055;-80
2021/01/25 09:28:24;;;;;;;28.50;18.17;;;1.20;96.40;;;;;;5051046;28;20524;-80
2021/01/25 09:30:51;;;;;;;32.83;20.47;;;1.30;96.30;;;;;;5035630;28;20394;-81
2021/01/25 09:33:18;;;;;;;29.93;20.90;;;1.30;96.50;;;;;;5067150;28;20040;-80
2021/01/25 09:35:44;;;;;;;35.90;21.53;;;1.40;96.20;;;;;;5065742;28;20043;-82
2021/01/25 09:38:11;;;;;;;30.30;19.83;;;1.40;96.10;;;;;;5082139;28;20055;-79
2021/01/25 09:40:39;;;;;;;33.47;21.27;;;1.50;95.90;;;;;;5050150;28;20039;-81
2021/01/25 09:43:05;;;;;;;33.20;23.00;;;1.50;95.80;;;;;;5067381;28;20039;-82
2021/01/25 09:45:32;;;;;;;28.97;19.97;;;1.50;95.80;;;;;;5067580;28;20044;-81
2021/01/25 09:48:00;;;;;;;30.20;20.40;;;1.60;95.80;;;;;;5033642;28;20154;-79
2021/01/25 09:50:26;;;;;;;30.93;20.17;;;1.60;95.70;;;;;;5050652;28;20045;-82
2021/01/25 09:52:53;;;;;;;35.07;21.00;;;1.70;95.70;;;;;;5067474;28;20051;-81
2021/01/25 09:55:19;;;;;;;29.87;20.00;;;1.70;95.60;;;;;;5065597;28;20055;-79
2021/01/25 09:57:46;;;;;;;27.60;18.00;;;1.80;95.70;;;;;;5047893;28;20051;-78
2021/01/25 10:00:15;;;;;;;32.00;19.27;;;1.80;95.60;;;;;;5049095;28;20043;-78
2021/01/25 10:02:42;;;;;;;28.67;17.27;;;1.90;95.60;;;;;;5067532;28;20040;-82
2021/01/25 10:05:10;;;;;;;26.07;17.37;;;2.00;95.70;;;;;;5067804;28;20407;-81
2021/01/25 10:07:37;;;;;;;33.53;20.70;;;2.10;95.80;;;;;;5084132;28;20036;-81
2021/01/25 10:10:06;;;;;;;32.00;21.27;;;2.20;96.00;;;;;;5066188;28;20075;-81
2021/01/25 10:12:32;;;;;;;31.30;18.93;;;2.40;96.20;;;;;;5084298;28;20039;-87
2021/01/25 10:14:59;;;;;;;24.77;17.73;;;2.60;96.70;;;;;;5054692;28;20031;-87
2021/01/25 10:17:28;;;;;;;24.90;17.77;;;2.70;96.50;;;;;;5084185;28;20047;-90
2021/01/25 10:19:55;;;;;;;19.47;13.70;;;2.90;96.90;;;;;;5068671;28;20035;-88
2021/01/25 10:22:22;;;;;;;21.30;13.60;;;3.10;97.10;;;;;;5051560;28;20032;-87
2021/01/25 10:24:48;;;;;;;21.45;13.63;;;3.40;97.30;;;;;;5068318;28;20032;-85
2021/01/25 10:27:16;;;;;;;21.52;14.00;;;3.70;97.40;;;;;;5084438;28;20036;-85
2021/01/25 10:29:42;;;;;;;19.27;13.18;;;4.00;97.40;;;;;;5066033;28;20039;-87
2021/01/25 10:32:09;;;;;;;21.25;14.35;;;4.40;97.50;;;;;;5035273;28;20055;-87
2021/01/25 10:34:36;;;;;;;18.05;12.30;;;4.80;97.00;;;;;;5084543;28;20059;-87
2021/01/25 10:37:02;;;;;;;17.08;12.63;;;5.10;96.70;;;;;;5048485;28;20040;-87
2021/01/25 10:39:29;;;;;;;21.20;12.43;;;5.40;96.30;;;;;;5067711;28;20036;-87
2021/01/25 10:41:55;;;;;;;18.10;11.63;;;5.70;95.80;;;;;;5048531;28;20062;-87
2021/01/25 10:44:22;;;;;;;17.73;11.73;;;5.90;95.40;;;;;;5070567;28;20403;-81
2021/01/25 10:46:49;;;;;;;15.90;11.68;;;6.10;94.80;;;;;;5085437;28;20032;-82
2021/01/25 10:49:23;;;;;;;16.08;11.13;;;6.30;94.60;;;;;;5053971;28;20043;-81
2021/01/25 10:51:50;;;;;;;17.02;10.85;;;6.50;93.90;;;;;;5085617;28;20040;-81
2021/01/25 10:54:22;;;;;;;12.98;9.27;;;6.70;93.80;;;;;;5070353;28;20044;-80
2021/01/25 10:56:49;;;;;;;15.75;8.88;;;6.90;93.50;;;;;;5087590;28;20032;-80
2021/01/25 10:59:16;;;;;;;12.90;8.23;;;7.20;93.50;;;;;;5075214;28;20410;-86
2021/01/25 11:01:43;;;;;;;13.30;9.32;;;7.40;93.40;;;;;;5056977;28;20960;-85
2021/01/25 11:04:09;;;;;;;12.73;8.93;;;7.60;91.90;;;;;;5071886;28;20043;-86
2021/01/25 11:06:36;;;;;;;14.32;11.02;;;7.70;91.40;;;;;;5065584;28;20040;-85
2021/01/25 11:09:05;;;;;;;15.30;11.23;;;7.60;90.60;;;;;;5054909;28;20403;-86
2021/01/25 11:11:32;;;;;;;14.80;10.13;;;7.50;90.50;;;;;;5071421;28;20067;-88
2021/01/25 11:13:59;;;;;;;15.65;12.27;;;7.30;90.00;;;;;;5073581;28;20059;-90
2021/01/25 11:16:26;;;;;;;12.32;8.80;;;6.90;89.30;;;;;;5073153;28;20044;-90
2021/01/25 11:18:53;;;;;;;14.85;10.60;;;6.60;88.10;;;;;;5087566;28;20498;-81
2021/01/25 11:21:19;;;;;;;15.98;10.85;;;6.30;87.80;;;;;;5085572;28;20043;-81
2021/01/25 11:23:46;;;;;;;14.93;11.20;;;6.00;87.30;;;;;;5071013;28;20507;-84
2021/01/25 11:26:13;;;;;;;18.15;11.55;;;5.70;87.60;;;;;;5067408;28;20485;-80
2021/01/25 11:28:39;;;;;;;18.25;11.82;;;5.50;87.70;;;;;;5069753;28;20037;-81
2021/01/25 11:31:07;;;;;;;14.88;9.93;;;5.30;87.70;;;;;;5054434;28;20043;-79
2021/01/25 11:33:33;;;;;;;15.25;10.63;;;5.10;88.20;;;;;;5087586;28;20048;-83
2021/01/25 11:36:00;;;;;;;14.70;10.57;;;5.00;88.30;;;;;;5071085;28;20402;-81
2021/01/25 11:38:27;;;;;;;16.23;10.45;;;4.80;87.90;;;;;;5087214;28;20047;-81
2021/01/25 11:40:53;;;;;;;15.77;10.85;;;4.70;88.10;;;;;;5054192;28;20090;-80
2021/01/25 11:43:20;;;;;;;18.23;11.60;;;4.60;88.00;;;;;;5070246;28;20533;-80
2021/01/25 11:45:50;;;;;;;17.40;11.10;;;4.50;88.00;;;;;;5089130;28;20047;-80
2021/01/25 11:48:20;;;;;;;16.80;9.98;;;4.40;87.20;;;;;;5053624;28;20048;-79
2021/01/25 11:50:48;;;;;;;15.02;9.20;;;4.30;87.10;;;;;;5064392;28;20040;-86
2021/01/25 11:53:15;;;;;;;15.88;9.50;;;4.30;86.80;;;;;;5086779;28;20529;-87
2021/01/25 11:55:42;;;;;;;14.10;10.70;;;4.20;87.30;;;;;;5069265;28;20041;-86
2021/01/25 11:58:09;;;;;;;13.13;8.90;;;4.20;87.40;;;;;;5080332;28;20056;-84
2021/01/25 12:00:36;;;;;;;14.00;9.53;;;4.20;87.60;;;;;;5070283;28;20037;-86
2021/01/25 12:03:04;;;;;;;13.90;9.82;;;4.10;87.60;;;;;;5087520;28;20040;-87
2021/01/25 12:05:32;;;;;;;13.73;9.05;;;4.10;87.60;;;;;;5067044;28;20048;-83
2021/01/25 12:08:00;;;;;;;16.92;10.13;;;4.20;88.00;;;;;;5089279;28;20036;-87
2021/01/25 12:10:27;;;;;;;14.53;9.13;;;4.10;87.50;;;;;;5067736;28;20052;-87
2021/01/25 12:12:54;;;;;;;22.35;13.23;;;4.10;87.70;;;;;;5088650;28;20040;-90
2021/01/25 12:15:32;;;;;;;;;;;;;;;;;;;;;
2021/01/25 12:18:04;;;;;;;14.57;9.48;;;4.20;87.60;;;;;;5056476;28;20048;-89
2021/01/25 12:20:30;;;;;;;14.53;9.73;;;4.20;88.00;;;;;;5068400;28;20047;-86
2021/01/25 12:22:57;;;;;;;15.38;10.75;;;4.20;88.30;;;;;;5069323;28;20037;-87
2021/01/25 12:25:23;;;;;;;14.37;9.20;;;4.20;88.40;;;;;;5069561;28;20051;-87
2021/01/25 12:27:51;;;;;;;17.43;9.70;;;4.20;88.70;;;;;;5059925;28;20051;-87
2021/01/25 12:30:18;;;;;;;13.10;9.23;;;4.20;88.80;;;;;;5037307;28;20052;-86
2021/01/25 12:32:45;;;;;;;13.43;8.97;;;4.20;88.90;;;;;;5070168;28;20067;-80
2021/01/25 12:35:13;;;;;;;13.63;8.80;;;4.20;89.00;;;;;;5086417;28;20040;-80
2021/01/25 12:37:40;;;;;;;16.73;10.77;;;4.20;89.20;;;;;;5068747;28;20494;-80
2021/01/25 12:40:07;;;;;;;13.03;9.07;;;4.20;88.90;;;;;;5068722;28;20035;-80
2021/01/25 12:42:34;;;;;;;13.17;9.20;;;4.20;89.10;;;;;;5066121;28;20044;-80
2021/01/25 12:45:01;;;;;;;14.37;8.40;;;4.20;89.30;;;;;;5075254;28;20041;-80